sensor_id;sensor_type;location;lat;lon;timestamp;P1;durP1;ratioP1;P2;durP2;ratioP2
73959;SDS011;62316;48.920;2.342;2023-01-23T00:00:51;62.75;;;45.50;;
73959;SDS011;62316;48.920;2.342;2023-01-23T00:03:16;49.25;;;42.75;;
73959;SDS011;62316;48.920;2.342;2023-01-23T00:05:42;51.50;;;40.25;;
73959;SDS011;62316;48.920;2.342;2023-01-23T00:08:08;49.25;;;38.50;;
73959;SDS011;62316;48.920;2.342;2023-01-23T00:10:33;52.25;;;42.00;;
73959;SDS011;62316;48.920;2.342;2023-01-23T00:12:58;55.00;;;40.25;;
73959;SDS011;62316;48.920;2.342;2023-01-23T00:15:26;57.00;;;41.50;;
73959;SDS011;62316;48.920;2.342;2023-01-23T00:18:13;42.50;;;36.50;;
73959;SDS011;62316;48.920;2.342;2023-01-23T00:20:39;52.75;;;41.25;;
73959;SDS011;62316;48.920;2.342;2023-01-23T00:23:05;59.50;;;40.25;;
73959;SDS011;62316;48.920;2.342;2023-01-23T00:25:30;54.50;;;43.75;;
73959;SDS011;62316;48.920;2.342;2023-01-23T00:28:04;47.00;;;37.50;;
73959;SDS011;62316;48.920;2.342;2023-01-23T00:30:29;62.00;;;46.25;;
73959;SDS011;62316;48.920;2.342;2023-01-23T00:32:57;54.25;;;40.75;;
73959;SDS011;62316;48.920;2.342;2023-01-23T00:35:22;54.50;;;44.25;;
73959;SDS011;62316;48.920;2.342;2023-01-23T00:37:48;53.50;;;43.50;;
73959;SDS011;62316;48.920;2.342;2023-01-23T00:40:13;52.25;;;44.75;;
73959;SDS011;62316;48.920;2.342;2023-01-23T00:42:38;61.75;;;45.00;;
73959;SDS011;62316;48.920;2.342;2023-01-23T00:45:04;62.75;;;45.75;;
73959;SDS011;62316;48.920;2.342;2023-01-23T00:47:29;59.50;;;45.50;;
73959;SDS011;62316;48.920;2.342;2023-01-23T00:49:57;56.50;;;40.50;;
73959;SDS011;62316;48.920;2.342;2023-01-23T00:52:23;58.25;;;44.75;;
73959;SDS011;62316;48.920;2.342;2023-01-23T00:54:48;57.50;;;42.50;;
73959;SDS011;62316;48.920;2.342;2023-01-23T00:57:14;56.50;;;42.50;;
73959;SDS011;62316;48.920;2.342;2023-01-23T00:59:39;50.75;;;39.75;;
73959;SDS011;62316;48.920;2.342;2023-01-23T01:02:04;61.00;;;42.25;;
73959;SDS011;62316;48.920;2.342;2023-01-23T01:04:30;60.50;;;45.50;;
73959;SDS011;62316;48.920;2.342;2023-01-23T01:06:55;56.00;;;45.75;;
73959;SDS011;62316;48.920;2.342;2023-01-23T01:09:20;51.00;;;40.75;;
73959;SDS011;62316;48.920;2.342;2023-01-23T01:11:45;40.00;;;23.50;;
73959;SDS011;62316;48.920;2.342;2023-01-23T01:14:11;51.75;;;42.00;;
73959;SDS011;62316;48.920;2.342;2023-01-23T01:16:36;50.00;;;41.75;;
73959;SDS011;62316;48.920;2.342;2023-01-23T01:19:02;55.25;;;44.00;;
73959;SDS011;62316;48.920;2.342;2023-01-23T01:21:27;53.25;;;43.75;;
73959;SDS011;62316;48.920;2.342;2023-01-23T01:23:53;41.50;;;34.75;;
73959;SDS011;62316;48.920;2.342;2023-01-23T01:26:18;54.75;;;42.50;;
73959;SDS011;62316;48.920;2.342;2023-01-23T01:28:43;62.50;;;44.25;;
73959;SDS011;62316;48.920;2.342;2023-01-23T01:31:11;55.50;;;45.00;;
73959;SDS011;62316;48.920;2.342;2023-01-23T01:33:37;52.00;;;41.25;;
73959;SDS011;62316;48.920;2.342;2023-01-23T01:36:06;42.50;;;35.25;;
73959;SDS011;62316;48.920;2.342;2023-01-23T01:38:31;57.75;;;42.75;;
73959;SDS011;62316;48.920;2.342;2023-01-23T01:40:56;50.50;;;40.75;;
73959;SDS011;62316;48.920;2.342;2023-01-23T01:43:22;51.00;;;41.75;;
73959;SDS011;62316;48.920;2.342;2023-01-23T01:45:59;55.25;;;41.25;;
73959;SDS011;62316;48.920;2.342;2023-01-23T01:48:29;49.00;;;38.00;;
73959;SDS011;62316;48.920;2.342;2023-01-23T01:50:56;57.75;;;43.25;;
73959;SDS011;62316;48.920;2.342;2023-01-23T01:53:22;49.75;;;38.75;;
73959;SDS011;62316;48.920;2.342;2023-01-23T01:56:03;51.50;;;42.75;;
73959;SDS011;62316;48.920;2.342;2023-01-23T01:58:29;48.25;;;41.25;;
73959;SDS011;62316;48.920;2.342;2023-01-23T02:00:54;43.75;;;37.75;;
73959;SDS011;62316;48.920;2.342;2023-01-23T02:03:21;51.25;;;38.75;;
73959;SDS011;62316;48.920;2.342;2023-01-23T02:05:47;60.50;;;45.25;;
73959;SDS011;62316;48.920;2.342;2023-01-23T02:08:19;53.25;;;41.75;;
73959;SDS011;62316;48.920;2.342;2023-01-23T02:10:46;49.50;;;38.50;;
73959;SDS011;62316;48.920;2.342;2023-01-23T02:15:43;46.50;;;40.00;;
73959;SDS011;62316;48.920;2.342;2023-01-23T02:18:09;55.50;;;40.75;;
73959;SDS011;62316;48.920;2.342;2023-01-23T02:20:34;40.50;;;30.50;;
73959;SDS011;62316;48.920;2.342;2023-01-23T02:28:12;56.50;;;44.50;;
73959;SDS011;62316;48.920;2.342;2023-01-23T02:30:39;50.50;;;44.00;;
73959;SDS011;62316;48.920;2.342;2023-01-23T02:35:33;51.25;;;40.75;;
73959;SDS011;62316;48.920;2.342;2023-01-23T02:37:59;42.75;;;36.50;;
73959;SDS011;62316;48.920;2.342;2023-01-23T02:40:33;58.25;;;41.00;;
73959;SDS011;62316;48.920;2.342;2023-01-23T02:43:00;55.75;;;41.00;;
73959;SDS011;62316;48.920;2.342;2023-01-23T02:45:26;60.50;;;43.50;;
73959;SDS011;62316;48.920;2.342;2023-01-23T02:47:52;45.25;;;39.75;;
73959;SDS011;62316;48.920;2.342;2023-01-23T02:50:17;55.75;;;44.00;;
73959;SDS011;62316;48.920;2.342;2023-01-23T02:52:43;60.75;;;44.75;;
73959;SDS011;62316;48.920;2.342;2023-01-23T02:55:09;50.25;;;40.75;;
73959;SDS011;62316;48.920;2.342;2023-01-23T02:57:34;53.25;;;43.25;;
73959;SDS011;62316;48.920;2.342;2023-01-23T03:00:00;50.50;;;36.75;;
73959;SDS011;62316;48.920;2.342;2023-01-23T03:02:41;48.25;;;39.75;;
73959;SDS011;62316;48.920;2.342;2023-01-23T03:05:06;53.25;;;38.75;;
73959;SDS011;62316;48.920;2.342;2023-01-23T03:07:32;57.50;;;42.00;;
73959;SDS011;62316;48.920;2.342;2023-01-23T03:09:57;68.00;;;46.25;;
73959;SDS011;62316;48.920;2.342;2023-01-23T03:12:22;59.50;;;43.00;;
73959;SDS011;62316;48.920;2.342;2023-01-23T03:14:48;45.00;;;35.75;;
73959;SDS011;62316;48.920;2.342;2023-01-23T03:17:18;51.75;;;42.50;;
73959;SDS011;62316;48.920;2.342;2023-01-23T03:19:43;47.50;;;41.75;;
73959;SDS011;62316;48.920;2.342;2023-01-23T03:22:08;62.50;;;40.50;;
73959;SDS011;62316;48.920;2.342;2023-01-23T03:24:34;46.75;;;38.75;;
73959;SDS011;62316;48.920;2.342;2023-01-23T03:26:59;55.25;;;43.50;;
73959;SDS011;62316;48.920;2.342;2023-01-23T03:29:24;44.50;;;31.00;;
73959;SDS011;62316;48.920;2.342;2023-01-23T03:32:09;50.75;;;38.75;;
73959;SDS011;62316;48.920;2.342;2023-01-23T03:34:35;46.75;;;38.50;;
73959;SDS011;62316;48.920;2.342;2023-01-23T03:37:00;53.00;;;44.75;;
73959;SDS011;62316;48.920;2.342;2023-01-23T03:39:27;50.75;;;40.25;;
73959;SDS011;62316;48.920;2.342;2023-01-23T03:42:11;57.25;;;42.25;;
73959;SDS011;62316;48.920;2.342;2023-01-23T03:44:36;56.75;;;41.50;;
73959;SDS011;62316;48.920;2.342;2023-01-23T03:47:02;56.25;;;42.75;;
73959;SDS011;62316;48.920;2.342;2023-01-23T03:49:27;63.00;;;49.25;;
73959;SDS011;62316;48.920;2.342;2023-01-23T03:51:53;55.50;;;44.00;;
73959;SDS011;62316;48.920;2.342;2023-01-23T03:54:18;56.50;;;43.50;;
73959;SDS011;62316;48.920;2.342;2023-01-23T03:56:43;50.50;;;41.00;;
73959;SDS011;62316;48.920;2.342;2023-01-23T03:59:09;48.75;;;39.50;;
73959;SDS011;62316;48.920;2.342;2023-01-23T04:01:34;49.25;;;41.25;;
73959;SDS011;62316;48.920;2.342;2023-01-23T04:04:00;62.00;;;44.75;;
73959;SDS011;62316;48.920;2.342;2023-01-23T04:06:25;43.00;;;34.25;;
73959;SDS011;62316;48.920;2.342;2023-01-23T04:08:51;63.00;;;46.50;;
73959;SDS011;62316;48.920;2.342;2023-01-23T04:11:16;59.00;;;45.25;;
73959;SDS011;62316;48.920;2.342;2023-01-23T04:13:42;49.75;;;38.50;;
73959;SDS011;62316;48.920;2.342;2023-01-23T04:16:07;48.50;;;38.00;;
73959;SDS011;62316;48.920;2.342;2023-01-23T04:18:39;53.25;;;40.00;;
73959;SDS011;62316;48.920;2.342;2023-01-23T04:21:05;49.50;;;40.00;;
73959;SDS011;62316;48.920;2.342;2023-01-23T04:23:30;58.50;;;44.75;;
73959;SDS011;62316;48.920;2.342;2023-01-23T04:25:55;49.50;;;43.75;;
73959;SDS011;62316;48.920;2.342;2023-01-23T04:28:21;49.75;;;41.50;;
73959;SDS011;62316;48.920;2.342;2023-01-23T04:30:47;61.50;;;46.50;;
73959;SDS011;62316;48.920;2.342;2023-01-23T04:33:13;53.00;;;44.00;;
73959;SDS011;62316;48.920;2.342;2023-01-23T04:35:38;46.50;;;38.50;;
73959;SDS011;62316;48.920;2.342;2023-01-23T04:38:03;62.50;;;44.00;;
73959;SDS011;62316;48.920;2.342;2023-01-23T04:40:29;56.25;;;43.00;;
73959;SDS011;62316;48.920;2.342;2023-01-23T04:42:54;54.75;;;42.25;;
73959;SDS011;62316;48.920;2.342;2023-01-23T04:45:19;58.50;;;44.75;;
73959;SDS011;62316;48.920;2.342;2023-01-23T04:47:45;62.00;;;45.50;;
73959;SDS011;62316;48.920;2.342;2023-01-23T04:50:10;63.00;;;47.25;;
73959;SDS011;62316;48.920;2.342;2023-01-23T04:52:35;53.25;;;42.75;;
73959;SDS011;62316;48.920;2.342;2023-01-23T05:01:12;52.50;;;44.00;;
73959;SDS011;62316;48.920;2.342;2023-01-23T05:03:55;59.75;;;45.25;;
73959;SDS011;62316;48.920;2.342;2023-01-23T05:06:21;60.75;;;43.50;;
73959;SDS011;62316;48.920;2.342;2023-01-23T05:08:46;53.25;;;42.50;;
73959;SDS011;62316;48.920;2.342;2023-01-23T05:11:11;50.50;;;39.75;;
73959;SDS011;62316;48.920;2.342;2023-01-23T05:13:36;53.50;;;44.00;;
73959;SDS011;62316;48.920;2.342;2023-01-23T05:16:02;63.25;;;47.50;;
73959;SDS011;62316;48.920;2.342;2023-01-23T05:18:27;50.50;;;41.75;;
73959;SDS011;62316;48.920;2.342;2023-01-23T05:20:52;51.75;;;40.50;;
73959;SDS011;62316;48.920;2.342;2023-01-23T05:23:17;59.75;;;40.75;;
73959;SDS011;62316;48.920;2.342;2023-01-23T05:25:43;56.00;;;40.75;;
73959;SDS011;62316;48.920;2.342;2023-01-23T05:28:08;63.25;;;47.25;;
73959;SDS011;62316;48.920;2.342;2023-01-23T05:30:34;52.00;;;42.00;;
73959;SDS011;62316;48.920;2.342;2023-01-23T05:32:59;56.75;;;46.50;;
73959;SDS011;62316;48.920;2.342;2023-01-23T05:35:24;54.00;;;44.25;;
73959;SDS011;62316;48.920;2.342;2023-01-23T05:37:50;60.00;;;47.75;;
73959;SDS011;62316;48.920;2.342;2023-01-23T05:40:16;60.75;;;45.50;;
73959;SDS011;62316;48.920;2.342;2023-01-23T05:42:41;49.00;;;43.00;;
73959;SDS011;62316;48.920;2.342;2023-01-23T05:45:06;50.25;;;42.50;;
73959;SDS011;62316;48.920;2.342;2023-01-23T05:47:32;73.75;;;55.75;;
73959;SDS011;62316;48.920;2.342;2023-01-23T05:49:57;55.00;;;43.75;;
73959;SDS011;62316;48.920;2.342;2023-01-23T05:52:22;54.75;;;45.50;;
73959;SDS011;62316;48.920;2.342;2023-01-23T05:54:48;64.00;;;47.25;;
73959;SDS011;62316;48.920;2.342;2023-01-23T05:57:14;60.50;;;41.75;;
73959;SDS011;62316;48.920;2.342;2023-01-23T05:59:39;61.50;;;44.00;;
73959;SDS011;62316;48.920;2.342;2023-01-23T06:02:04;68.00;;;48.00;;
73959;SDS011;62316;48.920;2.342;2023-01-23T06:04:30;46.25;;;38.75;;
73959;SDS011;62316;48.920;2.342;2023-01-23T06:06:55;60.00;;;39.75;;
73959;SDS011;62316;48.920;2.342;2023-01-23T06:09:20;54.50;;;36.50;;
73959;SDS011;62316;48.920;2.342;2023-01-23T06:15:05;45.75;;;32.50;;
73959;SDS011;62316;48.920;2.342;2023-01-23T06:17:30;47.25;;;28.75;;
73959;SDS011;62316;48.920;2.342;2023-01-23T06:19:56;44.25;;;33.00;;
73959;SDS011;62316;48.920;2.342;2023-01-23T06:22:22;42.75;;;29.75;;
73959;SDS011;62316;48.920;2.342;2023-01-23T06:24:47;52.25;;;37.25;;
73959;SDS011;62316;48.920;2.342;2023-01-23T06:27:34;40.75;;;29.75;;
73959;SDS011;62316;48.920;2.342;2023-01-23T06:30:28;50.25;;;42.00;;
73959;SDS011;62316;48.920;2.342;2023-01-23T06:32:54;43.75;;;37.25;;
73959;SDS011;62316;48.920;2.342;2023-01-23T06:35:19;43.00;;;37.75;;
73959;SDS011;62316;48.920;2.342;2023-01-23T06:37:44;45.25;;;39.25;;
73959;SDS011;62316;48.920;2.342;2023-01-23T06:40:10;53.50;;;43.75;;
73959;SDS011;62316;48.920;2.342;2023-01-23T06:42:37;50.25;;;40.50;;
73959;SDS011;62316;48.920;2.342;2023-01-23T06:45:03;50.25;;;36.00;;
73959;SDS011;62316;48.920;2.342;2023-01-23T06:47:28;29.00;;;25.25;;
73959;SDS011;62316;48.920;2.342;2023-01-23T06:49:53;56.50;;;44.00;;
73959;SDS011;62316;48.920;2.342;2023-01-23T06:52:19;52.25;;;39.00;;
73959;SDS011;62316;48.920;2.342;2023-01-23T06:54:44;59.25;;;37.50;;
73959;SDS011;62316;48.920;2.342;2023-01-23T06:57:09;52.00;;;42.00;;
73959;SDS011;62316;48.920;2.342;2023-01-23T06:59:35;47.50;;;39.75;;
73959;SDS011;62316;48.920;2.342;2023-01-23T07:02:00;52.25;;;40.25;;
73959;SDS011;62316;48.920;2.342;2023-01-23T07:04:26;38.00;;;32.50;;
73959;SDS011;62316;48.920;2.342;2023-01-23T07:06:51;62.25;;;43.50;;
73959;SDS011;62316;48.920;2.342;2023-01-23T07:09:16;62.25;;;43.25;;
73959;SDS011;62316;48.920;2.342;2023-01-23T07:11:41;52.50;;;41.25;;
73959;SDS011;62316;48.920;2.342;2023-01-23T07:14:07;45.50;;;40.00;;
73959;SDS011;62316;48.920;2.342;2023-01-23T07:16:32;53.50;;;40.50;;
73959;SDS011;62316;48.920;2.342;2023-01-23T07:18:59;46.25;;;40.00;;
73959;SDS011;62316;48.920;2.342;2023-01-23T07:21:25;46.75;;;38.50;;
73959;SDS011;62316;48.920;2.342;2023-01-23T07:23:50;42.50;;;34.00;;
73959;SDS011;62316;48.920;2.342;2023-01-23T07:26:16;47.75;;;40.25;;
73959;SDS011;62316;48.920;2.342;2023-01-23T07:28:41;44.25;;;39.50;;
73959;SDS011;62316;48.920;2.342;2023-01-23T07:31:07;58.00;;;43.00;;
73959;SDS011;62316;48.920;2.342;2023-01-23T07:33:32;47.00;;;40.75;;
73959;SDS011;62316;48.920;2.342;2023-01-23T07:35:58;52.50;;;37.75;;
73959;SDS011;62316;48.920;2.342;2023-01-23T07:38:23;55.00;;;41.25;;
73959;SDS011;62316;48.920;2.342;2023-01-23T07:40:49;57.50;;;41.00;;
73959;SDS011;62316;48.920;2.342;2023-01-23T07:43:15;52.00;;;44.00;;
73959;SDS011;62316;48.920;2.342;2023-01-23T07:45:40;47.50;;;39.00;;
73959;SDS011;62316;48.920;2.342;2023-01-23T07:48:05;59.50;;;45.00;;
73959;SDS011;62316;48.920;2.342;2023-01-23T07:50:31;48.00;;;38.75;;
73959;SDS011;62316;48.920;2.342;2023-01-23T07:52:56;45.25;;;36.50;;
73959;SDS011;62316;48.920;2.342;2023-01-23T07:55:21;53.00;;;42.75;;
73959;SDS011;62316;48.920;2.342;2023-01-23T07:57:46;60.25;;;46.75;;
73959;SDS011;62316;48.920;2.342;2023-01-23T08:00:12;42.75;;;31.25;;
73959;SDS011;62316;48.920;2.342;2023-01-23T08:02:37;51.25;;;41.50;;
73959;SDS011;62316;48.920;2.342;2023-01-23T08:05:03;54.25;;;39.75;;
73959;SDS011;62316;48.920;2.342;2023-01-23T08:07:28;60.00;;;47.25;;
73959;SDS011;62316;48.920;2.342;2023-01-23T08:09:53;48.75;;;35.25;;
73959;SDS011;62316;48.920;2.342;2023-01-23T08:12:19;48.25;;;41.75;;
73959;SDS011;62316;48.920;2.342;2023-01-23T08:14:45;58.00;;;43.00;;
73959;SDS011;62316;48.920;2.342;2023-01-23T08:17:10;48.50;;;39.25;;
73959;SDS011;62316;48.920;2.342;2023-01-23T08:19:36;56.00;;;42.75;;
73959;SDS011;62316;48.920;2.342;2023-01-23T08:22:01;59.00;;;43.75;;
73959;SDS011;62316;48.920;2.342;2023-01-23T08:24:26;64.00;;;44.75;;
73959;SDS011;62316;48.920;2.342;2023-01-23T08:26:52;57.25;;;42.25;;
73959;SDS011;62316;48.920;2.342;2023-01-23T08:29:17;51.75;;;40.50;;
73959;SDS011;62316;48.920;2.342;2023-01-23T08:31:42;55.50;;;41.75;;
73959;SDS011;62316;48.920;2.342;2023-01-23T08:34:08;57.00;;;43.75;;
73959;SDS011;62316;48.920;2.342;2023-01-23T08:36:34;44.25;;;36.75;;
73959;SDS011;62316;48.920;2.342;2023-01-23T08:38:59;54.25;;;43.00;;
73959;SDS011;62316;48.920;2.342;2023-01-23T08:41:24;50.00;;;44.00;;
73959;SDS011;62316;48.920;2.342;2023-01-23T08:43:49;45.25;;;39.00;;
73959;SDS011;62316;48.920;2.342;2023-01-23T08:46:15;47.50;;;40.00;;
73959;SDS011;62316;48.920;2.342;2023-01-23T08:48:40;60.75;;;44.00;;
73959;SDS011;62316;48.920;2.342;2023-01-23T08:51:07;57.25;;;43.50;;
73959;SDS011;62316;48.920;2.342;2023-01-23T08:53:33;51.50;;;42.25;;
73959;SDS011;62316;48.920;2.342;2023-01-23T08:55:59;40.75;;;34.00;;
73959;SDS011;62316;48.920;2.342;2023-01-23T08:58:25;53.00;;;42.50;;
73959;SDS011;62316;48.920;2.342;2023-01-23T09:00:50;54.75;;;43.25;;
73959;SDS011;62316;48.920;2.342;2023-01-23T09:03:16;57.75;;;40.25;;
73959;SDS011;62316;48.920;2.342;2023-01-23T09:05:41;48.75;;;40.50;;
73959;SDS011;62316;48.920;2.342;2023-01-23T09:08:06;59.75;;;43.50;;
73959;SDS011;62316;48.920;2.342;2023-01-23T09:10:32;46.25;;;39.75;;
73959;SDS011;62316;48.920;2.342;2023-01-23T09:12:57;53.50;;;43.00;;
73959;SDS011;62316;48.920;2.342;2023-01-23T09:15:23;58.25;;;39.50;;
73959;SDS011;62316;48.920;2.342;2023-01-23T09:17:48;54.00;;;40.75;;
73959;SDS011;62316;48.920;2.342;2023-01-23T09:20:13;38.25;;;37.50;;
73959;SDS011;62316;48.920;2.342;2023-01-23T09:22:39;40.00;;;32.50;;
73959;SDS011;62316;48.920;2.342;2023-01-23T09:25:05;46.25;;;34.75;;
73959;SDS011;62316;48.920;2.342;2023-01-23T09:27:30;60.75;;;43.25;;
73959;SDS011;62316;48.920;2.342;2023-01-23T09:29:55;50.75;;;43.00;;
73959;SDS011;62316;48.920;2.342;2023-01-23T09:32:21;52.00;;;38.25;;
73959;SDS011;62316;48.920;2.342;2023-01-23T09:34:48;44.25;;;41.25;;
73959;SDS011;62316;48.920;2.342;2023-01-23T09:37:17;42.00;;;37.00;;
73959;SDS011;62316;48.920;2.342;2023-01-23T09:39:42;60.00;;;47.25;;
73959;SDS011;62316;48.920;2.342;2023-01-23T09:42:21;48.75;;;38.50;;
73959;SDS011;62316;48.920;2.342;2023-01-23T09:44:49;54.50;;;44.25;;
73959;SDS011;62316;48.920;2.342;2023-01-23T09:47:16;42.00;;;38.00;;
73959;SDS011;62316;48.920;2.342;2023-01-23T09:52:19;38.00;;;30.50;;
73959;SDS011;62316;48.920;2.342;2023-01-23T09:54:57;45.00;;;35.25;;
73959;SDS011;62316;48.920;2.342;2023-01-23T09:57:29;48.50;;;41.50;;
73959;SDS011;62316;48.920;2.342;2023-01-23T10:02:42;49.25;;;38.25;;
73959;SDS011;62316;48.920;2.342;2023-01-23T10:05:12;55.75;;;39.00;;
73959;SDS011;62316;48.920;2.342;2023-01-23T10:10:18;39.75;;;32.00;;
73959;SDS011;62316;48.920;2.342;2023-01-23T10:18:23;29.75;;;27.75;;
73959;SDS011;62316;48.920;2.342;2023-01-23T10:20:51;42.00;;;34.50;;
73959;SDS011;62316;48.920;2.342;2023-01-23T10:25:50;42.50;;;37.00;;
73959;SDS011;62316;48.920;2.342;2023-01-23T10:28:35;42.00;;;34.50;;
73959;SDS011;62316;48.920;2.342;2023-01-23T10:31:05;44.00;;;36.00;;
73959;SDS011;62316;48.920;2.342;2023-01-23T10:36:19;42.25;;;36.75;;
73959;SDS011;62316;48.920;2.342;2023-01-23T10:38:48;39.00;;;26.75;;
73959;SDS011;62316;48.920;2.342;2023-01-23T10:41:14;58.75;;;45.00;;
73959;SDS011;62316;48.920;2.342;2023-01-23T10:43:46;51.50;;;40.25;;
73959;SDS011;62316;48.920;2.342;2023-01-23T10:46:14;57.50;;;40.00;;
73959;SDS011;62316;48.920;2.342;2023-01-23T10:51:56;45.50;;;38.00;;
73959;SDS011;62316;48.920;2.342;2023-01-23T10:56:31;37.50;;;31.00;;
73959;SDS011;62316;48.920;2.342;2023-01-23T10:58:57;43.75;;;39.75;;
73959;SDS011;62316;48.920;2.342;2023-01-23T11:07:38;45.25;;;32.75;;
73959;SDS011;62316;48.920;2.342;2023-01-23T11:10:15;44.25;;;25.50;;
73959;SDS011;62316;48.920;2.342;2023-01-23T11:12:48;39.50;;;34.50;;
73959;SDS011;62316;48.920;2.342;2023-01-23T11:15:21;47.50;;;37.50;;
73959;SDS011;62316;48.920;2.342;2023-01-23T11:17:48;38.00;;;29.00;;
73959;SDS011;62316;48.920;2.342;2023-01-23T11:20:34;43.00;;;39.00;;
73959;SDS011;62316;48.920;2.342;2023-01-23T11:25:40;48.50;;;41.00;;
73959;SDS011;62316;48.920;2.342;2023-01-23T11:38:16;42.25;;;37.75;;
73959;SDS011;62316;48.920;2.342;2023-01-23T11:40:44;45.25;;;36.25;;
73959;SDS011;62316;48.920;2.342;2023-01-23T11:43:15;50.00;;;40.00;;
73959;SDS011;62316;48.920;2.342;2023-01-23T11:45:48;50.50;;;40.75;;
73959;SDS011;62316;48.920;2.342;2023-01-23T11:50:48;49.00;;;39.00;;
73959;SDS011;62316;48.920;2.342;2023-01-23T12:08:45;37.75;;;29.50;;
73959;SDS011;62316;48.920;2.342;2023-01-23T12:11:16;52.00;;;42.25;;
73959;SDS011;62316;48.920;2.342;2023-01-23T12:13:53;47.00;;;36.00;;
73959;SDS011;62316;48.920;2.342;2023-01-23T12:16:23;43.00;;;36.75;;
73959;SDS011;62316;48.920;2.342;2023-01-23T12:19:05;42.50;;;31.25;;
73959;SDS011;62316;48.920;2.342;2023-01-23T12:24:16;37.00;;;31.00;;
73959;SDS011;62316;48.920;2.342;2023-01-23T12:27:04;41.75;;;34.25;;
73959;SDS011;62316;48.920;2.342;2023-01-23T12:32:25;37.25;;;30.50;;
73959;SDS011;62316;48.920;2.342;2023-01-23T12:40:18;36.00;;;29.25;;
73959;SDS011;62316;48.920;2.342;2023-01-23T12:45:52;37.00;;;30.00;;
73959;SDS011;62316;48.920;2.342;2023-01-23T12:48:31;32.00;;;24.00;;
73959;SDS011;62316;48.920;2.342;2023-01-23T12:51:04;38.75;;;32.75;;
73959;SDS011;62316;48.920;2.342;2023-01-23T12:53:33;35.00;;;28.75;;
73959;SDS011;62316;48.920;2.342;2023-01-23T12:58:33;36.50;;;27.50;;
73959;SDS011;62316;48.920;2.342;2023-01-23T13:06:29;36.50;;;26.75;;
73959;SDS011;62316;48.920;2.342;2023-01-23T13:14:24;22.25;;;17.50;;
73959;SDS011;62316;48.920;2.342;2023-01-23T13:19:53;40.25;;;29.25;;
73959;SDS011;62316;48.920;2.342;2023-01-23T13:22:50;38.50;;;28.25;;
73959;SDS011;62316;48.920;2.342;2023-01-23T13:25:16;30.00;;;25.75;;
73959;SDS011;62316;48.920;2.342;2023-01-23T13:27:44;36.50;;;25.75;;
73959;SDS011;62316;48.920;2.342;2023-01-23T13:30:57;35.50;;;27.75;;
73959;SDS011;62316;48.920;2.342;2023-01-23T13:38:12;33.00;;;27.25;;
73959;SDS011;62316;48.920;2.342;2023-01-23T13:49:18;29.75;;;25.75;;
73959;SDS011;62316;48.920;2.342;2023-01-23T13:51:58;23.25;;;21.00;;
73959;SDS011;62316;48.920;2.342;2023-01-23T13:54:30;23.50;;;22.50;;
73959;SDS011;62316;48.920;2.342;2023-01-23T13:57:15;37.50;;;28.25;;
73959;SDS011;62316;48.920;2.342;2023-01-23T13:59:41;28.75;;;23.00;;
73959;SDS011;62316;48.920;2.342;2023-01-23T14:02:28;29.75;;;24.00;;
73959;SDS011;62316;48.920;2.342;2023-01-23T14:05:16;25.25;;;25.25;;
73959;SDS011;62316;48.920;2.342;2023-01-23T14:07:44;34.00;;;26.00;;
73959;SDS011;62316;48.920;2.342;2023-01-23T14:10:15;22.75;;;19.25;;
73959;SDS011;62316;48.920;2.342;2023-01-23T14:12:41;23.50;;;16.25;;
73959;SDS011;62316;48.920;2.342;2023-01-23T14:20:44;24.50;;;21.00;;
73959;SDS011;62316;48.920;2.342;2023-01-23T14:23:17;33.75;;;28.25;;
73959;SDS011;62316;48.920;2.342;2023-01-23T14:25:44;39.50;;;29.00;;
73959;SDS011;62316;48.920;2.342;2023-01-23T14:28:11;25.50;;;24.25;;
73959;SDS011;62316;48.920;2.342;2023-01-23T14:30:39;29.75;;;20.00;;
73959;SDS011;62316;48.920;2.342;2023-01-23T14:33:14;30.00;;;26.25;;
73959;SDS011;62316;48.920;2.342;2023-01-23T14:35:41;31.50;;;25.00;;
73959;SDS011;62316;48.920;2.342;2023-01-23T14:38:07;34.75;;;28.50;;
73959;SDS011;62316;48.920;2.342;2023-01-23T14:40:32;26.50;;;21.25;;
73959;SDS011;62316;48.920;2.342;2023-01-23T14:43:02;32.75;;;29.25;;
73959;SDS011;62316;48.920;2.342;2023-01-23T14:45:30;31.50;;;26.25;;
73959;SDS011;62316;48.920;2.342;2023-01-23T14:47:55;30.25;;;24.50;;
73959;SDS011;62316;48.920;2.342;2023-01-23T14:50:22;28.75;;;22.00;;
73959;SDS011;62316;48.920;2.342;2023-01-23T14:53:01;32.00;;;29.00;;
73959;SDS011;62316;48.920;2.342;2023-01-23T14:55:27;22.25;;;15.00;;
73959;SDS011;62316;48.920;2.342;2023-01-23T14:57:53;33.00;;;25.50;;
73959;SDS011;62316;48.920;2.342;2023-01-23T15:00:19;36.00;;;29.25;;
73959;SDS011;62316;48.920;2.342;2023-01-23T15:02:46;33.25;;;26.50;;
73959;SDS011;62316;48.920;2.342;2023-01-23T15:10:15;30.25;;;24.50;;
73959;SDS011;62316;48.920;2.342;2023-01-23T15:12:48;18.50;;;18.50;;
73959;SDS011;62316;48.920;2.342;2023-01-23T15:15:17;39.75;;;26.00;;
73959;SDS011;62316;48.920;2.342;2023-01-23T15:17:44;23.75;;;20.25;;
73959;SDS011;62316;48.920;2.342;2023-01-23T15:20:28;34.25;;;25.75;;
73959;SDS011;62316;48.920;2.342;2023-01-23T15:22:54;26.50;;;25.00;;
73959;SDS011;62316;48.920;2.342;2023-01-23T15:25:26;34.50;;;26.75;;
73959;SDS011;62316;48.920;2.342;2023-01-23T15:27:55;26.50;;;22.75;;
73959;SDS011;62316;48.920;2.342;2023-01-23T15:33:02;27.50;;;25.25;;
73959;SDS011;62316;48.920;2.342;2023-01-23T15:35:33;32.25;;;26.25;;
73959;SDS011;62316;48.920;2.342;2023-01-23T15:38:05;29.75;;;25.25;;
73959;SDS011;62316;48.920;2.342;2023-01-23T15:40:33;40.25;;;34.00;;
73959;SDS011;62316;48.920;2.342;2023-01-23T15:43:04;45.75;;;37.75;;
73959;SDS011;62316;48.920;2.342;2023-01-23T15:45:32;30.25;;;22.75;;
73959;SDS011;62316;48.920;2.342;2023-01-23T15:47:58;29.75;;;20.75;;
73959;SDS011;62316;48.920;2.342;2023-01-23T15:50:24;29.75;;;24.00;;
73959;SDS011;62316;48.920;2.342;2023-01-23T15:52:51;31.25;;;27.00;;
73959;SDS011;62316;48.920;2.342;2023-01-23T15:55:16;29.00;;;25.00;;
73959;SDS011;62316;48.920;2.342;2023-01-23T15:57:42;26.00;;;25.25;;
73959;SDS011;62316;48.920;2.342;2023-01-23T16:00:15;34.75;;;26.25;;
73959;SDS011;62316;48.920;2.342;2023-01-23T16:02:41;35.75;;;30.00;;
73959;SDS011;62316;48.920;2.342;2023-01-23T16:05:06;25.25;;;21.75;;
73959;SDS011;62316;48.920;2.342;2023-01-23T16:07:33;33.25;;;30.00;;
73959;SDS011;62316;48.920;2.342;2023-01-23T16:09:58;35.75;;;29.00;;
73959;SDS011;62316;48.920;2.342;2023-01-23T16:12:26;30.25;;;27.50;;
73959;SDS011;62316;48.920;2.342;2023-01-23T16:15:04;26.50;;;21.50;;
73959;SDS011;62316;48.920;2.342;2023-01-23T16:17:33;31.25;;;28.00;;
73959;SDS011;62316;48.920;2.342;2023-01-23T16:19:59;40.75;;;35.00;;
73959;SDS011;62316;48.920;2.342;2023-01-23T16:22:25;28.25;;;25.50;;
73959;SDS011;62316;48.920;2.342;2023-01-23T16:24:51;32.75;;;26.50;;
73959;SDS011;62316;48.920;2.342;2023-01-23T16:27:17;30.25;;;25.50;;
73959;SDS011;62316;48.920;2.342;2023-01-23T16:29:43;31.50;;;27.00;;
73959;SDS011;62316;48.920;2.342;2023-01-23T16:32:08;32.25;;;27.25;;
73959;SDS011;62316;48.920;2.342;2023-01-23T16:34:34;25.00;;;22.50;;
73959;SDS011;62316;48.920;2.342;2023-01-23T16:36:59;21.00;;;17.50;;
73959;SDS011;62316;48.920;2.342;2023-01-23T16:39:26;36.75;;;33.75;;
73959;SDS011;62316;48.920;2.342;2023-01-23T16:41:53;39.50;;;34.00;;